sensor_id;sensor_type;location;lat;lon;timestamp;P1;durP1;ratioP1;P2;durP2;ratioP2
37657;SDS011;23500;53.268;8.308;2022-07-22T00:01:54;9.82;;;8.93;;
37657;SDS011;23500;53.268;8.308;2022-07-22T00:04:19;9.45;;;8.55;;
37657;SDS011;23500;53.268;8.308;2022-07-22T00:06:45;9.35;;;8.55;;
37657;SDS011;23500;53.268;8.308;2022-07-22T00:09:10;9.50;;;8.65;;
37657;SDS011;23500;53.268;8.308;2022-07-22T00:11:36;9.25;;;8.45;;
37657;SDS011;23500;53.268;8.308;2022-07-22T00:14:02;9.15;;;8.25;;
37657;SDS011;23500;53.268;8.308;2022-07-22T00:16:27;9.20;;;8.30;;
37657;SDS011;23500;53.268;8.308;2022-07-22T00:18:53;9.15;;;8.07;;
37657;SDS011;23500;53.268;8.308;2022-07-22T00:21:19;9.05;;;8.25;;
37657;SDS011;23500;53.268;8.308;2022-07-22T00:23:44;9.60;;;8.57;;
37657;SDS011;23500;53.268;8.308;2022-07-22T00:26:10;9.13;;;8.32;;
37657;SDS011;23500;53.268;8.308;2022-07-22T00:28:36;8.77;;;7.93;;
37657;SDS011;23500;53.268;8.308;2022-07-22T00:31:02;8.70;;;7.90;;
37657;SDS011;23500;53.268;8.308;2022-07-22T00:33:27;8.30;;;7.55;;
37657;SDS011;23500;53.268;8.308;2022-07-22T00:35:53;8.02;;;7.28;;
37657;SDS011;23500;53.268;8.308;2022-07-22T00:38:19;9.13;;;8.32;;
37657;SDS011;23500;53.268;8.308;2022-07-22T00:40:44;7.93;;;7.20;;
37657;SDS011;23500;53.268;8.308;2022-07-22T00:43:10;8.20;;;7.40;;
37657;SDS011;23500;53.268;8.308;2022-07-22T00:45:36;8.25;;;7.45;;
37657;SDS011;23500;53.268;8.308;2022-07-22T00:48:02;9.00;;;8.18;;
37657;SDS011;23500;53.268;8.308;2022-07-22T00:50:29;8.40;;;7.70;;
37657;SDS011;23500;53.268;8.308;2022-07-22T00:52:54;7.93;;;7.22;;
37657;SDS011;23500;53.268;8.308;2022-07-22T00:55:20;8.38;;;7.68;;
37657;SDS011;23500;53.268;8.308;2022-07-22T00:57:46;8.02;;;7.32;;
37657;SDS011;23500;53.268;8.308;2022-07-22T01:00:14;7.82;;;7.13;;
37657;SDS011;23500;53.268;8.308;2022-07-22T01:02:42;8.40;;;7.60;;
37657;SDS011;23500;53.268;8.308;2022-07-22T01:05:08;7.88;;;7.18;;
37657;SDS011;23500;53.268;8.308;2022-07-22T01:07:34;7.95;;;7.15;;
37657;SDS011;23500;53.268;8.308;2022-07-22T01:10:01;7.38;;;6.78;;
37657;SDS011;23500;53.268;8.308;2022-07-22T01:12:27;8.73;;;7.90;;
37657;SDS011;23500;53.268;8.308;2022-07-22T01:14:53;7.47;;;6.78;;
37657;SDS011;23500;53.268;8.308;2022-07-22T01:17:18;7.32;;;6.63;;
37657;SDS011;23500;53.268;8.308;2022-07-22T01:19:45;7.97;;;7.28;;
37657;SDS011;23500;53.268;8.308;2022-07-22T01:22:10;8.23;;;7.43;;
37657;SDS011;23500;53.268;8.308;2022-07-22T01:24:36;7.80;;;7.10;;
37657;SDS011;23500;53.268;8.308;2022-07-22T01:27:02;7.85;;;7.05;;
37657;SDS011;23500;53.268;8.308;2022-07-22T01:29:28;7.68;;;7.00;;
37657;SDS011;23500;53.268;8.308;2022-07-22T01:31:54;7.78;;;7.07;;
37657;SDS011;23500;53.268;8.308;2022-07-22T01:34:19;7.65;;;7.05;;
37657;SDS011;23500;53.268;8.308;2022-07-22T01:36:45;7.28;;;6.68;;
37657;SDS011;23500;53.268;8.308;2022-07-22T01:39:11;7.97;;;7.18;;
37657;SDS011;23500;53.268;8.308;2022-07-22T01:41:37;7.28;;;6.68;;
37657;SDS011;23500;53.268;8.308;2022-07-22T01:44:03;7.00;;;6.40;;
37657;SDS011;23500;53.268;8.308;2022-07-22T01:46:29;7.30;;;6.70;;
37657;SDS011;23500;53.268;8.308;2022-07-22T01:48:54;7.38;;;6.68;;
37657;SDS011;23500;53.268;8.308;2022-07-22T01:51:20;7.45;;;6.80;;
37657;SDS011;23500;53.268;8.308;2022-07-22T01:53:46;7.97;;;7.28;;
37657;SDS011;23500;53.268;8.308;2022-07-22T01:56:12;7.05;;;6.45;;
37657;SDS011;23500;53.268;8.308;2022-07-22T01:58:38;7.25;;;6.65;;
37657;SDS011;23500;53.268;8.308;2022-07-22T02:01:03;7.10;;;6.40;;
37657;SDS011;23500;53.268;8.308;2022-07-22T02:03:29;6.68;;;6.15;;
37657;SDS011;23500;53.268;8.308;2022-07-22T02:05:55;7.43;;;6.72;;
37657;SDS011;23500;53.268;8.308;2022-07-22T02:08:20;7.32;;;6.63;;
37657;SDS011;23500;53.268;8.308;2022-07-22T02:10:47;6.85;;;6.25;;
37657;SDS011;23500;53.268;8.308;2022-07-22T02:13:12;6.15;;;5.65;;
37657;SDS011;23500;53.268;8.308;2022-07-22T02:15:38;6.80;;;6.20;;
37657;SDS011;23500;53.268;8.308;2022-07-22T02:18:11;7.40;;;6.70;;
37657;SDS011;23500;53.268;8.308;2022-07-22T02:20:40;7.05;;;6.40;;
37657;SDS011;23500;53.268;8.308;2022-07-22T02:23:07;6.78;;;6.18;;
37657;SDS011;23500;53.268;8.308;2022-07-22T02:25:33;6.85;;;6.25;;
37657;SDS011;23500;53.268;8.308;2022-07-22T02:27:59;7.13;;;5.82;;
37657;SDS011;23500;53.268;8.308;2022-07-22T02:30:25;6.80;;;6.10;;
37657;SDS011;23500;53.268;8.308;2022-07-22T02:32:51;6.43;;;5.82;;
37657;SDS011;23500;53.268;8.308;2022-07-22T02:35:17;6.82;;;6.07;;
37657;SDS011;23500;53.268;8.308;2022-07-22T02:37:43;6.88;;;6.28;;
37657;SDS011;23500;53.268;8.308;2022-07-22T02:40:09;6.82;;;6.22;;
37657;SDS011;23500;53.268;8.308;2022-07-22T02:42:35;6.72;;;6.13;;
37657;SDS011;23500;53.268;8.308;2022-07-22T02:45:01;6.38;;;5.75;;
37657;SDS011;23500;53.268;8.308;2022-07-22T02:47:28;6.10;;;5.60;;
37657;SDS011;23500;53.268;8.308;2022-07-22T02:49:53;6.32;;;5.75;;
37657;SDS011;23500;53.268;8.308;2022-07-22T02:52:19;5.90;;;5.40;;
37657;SDS011;23500;53.268;8.308;2022-07-22T02:54:45;6.80;;;6.20;;
37657;SDS011;23500;53.268;8.308;2022-07-22T02:57:10;5.82;;;5.32;;
37657;SDS011;23500;53.268;8.308;2022-07-22T02:59:36;6.65;;;6.05;;
37657;SDS011;23500;53.268;8.308;2022-07-22T03:02:02;6.35;;;5.75;;
37657;SDS011;23500;53.268;8.308;2022-07-22T03:04:28;6.05;;;5.53;;
37657;SDS011;23500;53.268;8.308;2022-07-22T03:06:54;5.93;;;5.40;;
37657;SDS011;23500;53.268;8.308;2022-07-22T03:09:19;6.32;;;5.80;;
37657;SDS011;23500;53.268;8.308;2022-07-22T03:11:45;6.20;;;5.60;;
37657;SDS011;23500;53.268;8.308;2022-07-22T03:14:11;6.50;;;5.78;;
37657;SDS011;23500;53.268;8.308;2022-07-22T03:16:37;6.03;;;5.53;;
37657;SDS011;23500;53.268;8.308;2022-07-22T03:19:02;5.95;;;5.40;;
37657;SDS011;23500;53.268;8.308;2022-07-22T03:21:28;5.15;;;4.70;;
37657;SDS011;23500;53.268;8.308;2022-07-22T03:23:54;5.68;;;5.13;;
37657;SDS011;23500;53.268;8.308;2022-07-22T03:26:23;6.30;;;5.70;;
37657;SDS011;23500;53.268;8.308;2022-07-22T03:28:49;5.57;;;5.07;;
37657;SDS011;23500;53.268;8.308;2022-07-22T03:31:15;5.82;;;5.32;;
37657;SDS011;23500;53.268;8.308;2022-07-22T03:33:40;6.22;;;5.63;;
37657;SDS011;23500;53.268;8.308;2022-07-22T03:36:06;6.20;;;5.35;;
37657;SDS011;23500;53.268;8.308;2022-07-22T03:38:33;5.63;;;5.13;;
37657;SDS011;23500;53.268;8.308;2022-07-22T03:40:59;5.25;;;4.75;;
37657;SDS011;23500;53.268;8.308;2022-07-22T03:43:25;5.40;;;4.90;;
37657;SDS011;23500;53.268;8.308;2022-07-22T03:45:51;5.43;;;4.93;;
37657;SDS011;23500;53.268;8.308;2022-07-22T03:48:16;4.93;;;4.53;;
37657;SDS011;23500;53.268;8.308;2022-07-22T03:50:42;5.70;;;5.18;;
37657;SDS011;23500;53.268;8.308;2022-07-22T03:53:08;5.38;;;4.88;;
37657;SDS011;23500;53.268;8.308;2022-07-22T03:55:33;5.13;;;4.72;;
37657;SDS011;23500;53.268;8.308;2022-07-22T03:57:59;5.05;;;4.65;;
37657;SDS011;23500;53.268;8.308;2022-07-22T04:00:24;5.40;;;4.95;;
37657;SDS011;23500;53.268;8.308;2022-07-22T04:02:50;5.07;;;4.57;;
37657;SDS011;23500;53.268;8.308;2022-07-22T04:05:16;5.60;;;5.10;;
37657;SDS011;23500;53.268;8.308;2022-07-22T04:07:41;5.95;;;4.88;;
37657;SDS011;23500;53.268;8.308;2022-07-22T04:10:07;5.05;;;4.63;;
37657;SDS011;23500;53.268;8.308;2022-07-22T04:12:34;5.40;;;4.90;;
37657;SDS011;23500;53.268;8.308;2022-07-22T04:15:00;5.03;;;4.43;;
37657;SDS011;23500;53.268;8.308;2022-07-22T04:17:26;5.03;;;4.57;;
37657;SDS011;23500;53.268;8.308;2022-07-22T04:19:52;5.55;;;4.97;;
37657;SDS011;23500;53.268;8.308;2022-07-22T04:22:18;5.10;;;4.60;;
37657;SDS011;23500;53.268;8.308;2022-07-22T04:24:44;5.00;;;4.53;;
37657;SDS011;23500;53.268;8.308;2022-07-22T04:27:09;5.03;;;4.22;;
37657;SDS011;23500;53.268;8.308;2022-07-22T04:29:35;4.68;;;4.28;;
37657;SDS011;23500;53.268;8.308;2022-07-22T04:32:01;5.20;;;4.70;;
37657;SDS011;23500;53.268;8.308;2022-07-22T04:34:26;5.10;;;4.60;;
37657;SDS011;23500;53.268;8.308;2022-07-22T04:36:52;4.85;;;4.35;;
37657;SDS011;23500;53.268;8.308;2022-07-22T04:39:18;5.07;;;4.57;;
37657;SDS011;23500;53.268;8.308;2022-07-22T04:41:43;4.75;;;4.35;;
37657;SDS011;23500;53.268;8.308;2022-07-22T04:44:09;5.18;;;2.97;;
37657;SDS011;23500;53.268;8.308;2022-07-22T04:46:35;7.18;;;2.92;;
37657;SDS011;23500;53.268;8.308;2022-07-22T04:49:00;29.65;;;7.00;;
37657;SDS011;23500;53.268;8.308;2022-07-22T04:51:26;32.90;;;8.25;;
37657;SDS011;23500;53.268;8.308;2022-07-22T04:53:52;36.00;;;9.05;;
37657;SDS011;23500;53.268;8.308;2022-07-22T04:56:17;27.00;;;8.13;;
37657;SDS011;23500;53.268;8.308;2022-07-22T04:58:43;33.90;;;9.48;;
37657;SDS011;23500;53.268;8.308;2022-07-22T05:01:09;30.60;;;8.55;;
37657;SDS011;23500;53.268;8.308;2022-07-22T05:03:37;29.27;;;8.35;;
37657;SDS011;23500;53.268;8.308;2022-07-22T05:06:04;28.45;;;7.40;;
37657;SDS011;23500;53.268;8.308;2022-07-22T05:08:29;18.48;;;6.00;;
37657;SDS011;23500;53.268;8.308;2022-07-22T05:10:55;16.15;;;5.93;;
37657;SDS011;23500;53.268;8.308;2022-07-22T05:13:21;13.52;;;5.05;;
37657;SDS011;23500;53.268;8.308;2022-07-22T05:15:46;14.15;;;5.43;;
37657;SDS011;23500;53.268;8.308;2022-07-22T05:18:12;13.15;;;5.13;;
37657;SDS011;23500;53.268;8.308;2022-07-22T05:20:38;14.20;;;4.70;;
37657;SDS011;23500;53.268;8.308;2022-07-22T05:23:03;12.55;;;5.18;;
37657;SDS011;23500;53.268;8.308;2022-07-22T05:25:29;13.15;;;5.13;;
37657;SDS011;23500;53.268;8.308;2022-07-22T05:27:55;12.60;;;5.00;;
37657;SDS011;23500;53.268;8.308;2022-07-22T05:30:21;11.43;;;5.47;;
37657;SDS011;23500;53.268;8.308;2022-07-22T05:32:47;12.70;;;4.57;;
37657;SDS011;23500;53.268;8.308;2022-07-22T05:35:13;10.25;;;3.95;;
37657;SDS011;23500;53.268;8.308;2022-07-22T05:37:38;10.48;;;4.88;;
37657;SDS011;23500;53.268;8.308;2022-07-22T05:40:04;24.50;;;6.80;;
37657;SDS011;23500;53.268;8.308;2022-07-22T05:42:30;15.32;;;5.20;;
37657;SDS011;23500;53.268;8.308;2022-07-22T05:44:56;17.80;;;5.57;;
37657;SDS011;23500;53.268;8.308;2022-07-22T05:47:22;16.58;;;6.22;;
37657;SDS011;23500;53.268;8.308;2022-07-22T05:49:47;14.93;;;6.30;;
37657;SDS011;23500;53.268;8.308;2022-07-22T05:52:13;19.55;;;6.30;;
37657;SDS011;23500;53.268;8.308;2022-07-22T05:54:39;18.00;;;6.57;;
37657;SDS011;23500;53.268;8.308;2022-07-22T05:57:07;16.70;;;6.30;;
37657;SDS011;23500;53.268;8.308;2022-07-22T05:59:34;19.55;;;6.60;;
37657;SDS011;23500;53.268;8.308;2022-07-22T06:02:01;16.52;;;6.18;;
37657;SDS011;23500;53.268;8.308;2022-07-22T06:04:27;18.77;;;6.65;;
37657;SDS011;23500;53.268;8.308;2022-07-22T06:06:52;15.77;;;6.20;;
37657;SDS011;23500;53.268;8.308;2022-07-22T06:09:18;15.77;;;6.07;;
37657;SDS011;23500;53.268;8.308;2022-07-22T06:11:44;13.90;;;6.05;;
37657;SDS011;23500;53.268;8.308;2022-07-22T06:14:09;13.40;;;6.35;;
37657;SDS011;23500;53.268;8.308;2022-07-22T06:16:35;13.15;;;5.72;;
37657;SDS011;23500;53.268;8.308;2022-07-22T06:19:01;13.77;;;5.93;;
37657;SDS011;23500;53.268;8.308;2022-07-22T06:21:27;12.18;;;5.63;;
37657;SDS011;23500;53.268;8.308;2022-07-22T06:23:53;14.68;;;5.75;;
37657;SDS011;23500;53.268;8.308;2022-07-22T06:26:19;12.68;;;5.85;;
37657;SDS011;23500;53.268;8.308;2022-07-22T06:28:45;11.90;;;5.63;;
37657;SDS011;23500;53.268;8.308;2022-07-22T06:31:11;15.82;;;5.50;;
37657;SDS011;23500;53.268;8.308;2022-07-22T06:33:36;13.35;;;5.25;;
37657;SDS011;23500;53.268;8.308;2022-07-22T06:36:02;11.45;;;5.38;;
37657;SDS011;23500;53.268;8.308;2022-07-22T06:38:29;11.65;;;5.38;;
37657;SDS011;23500;53.268;8.308;2022-07-22T06:40:56;15.98;;;5.78;;
37657;SDS011;23500;53.268;8.308;2022-07-22T06:43:22;12.23;;;5.40;;
37657;SDS011;23500;53.268;8.308;2022-07-22T06:45:47;11.18;;;5.05;;
37657;SDS011;23500;53.268;8.308;2022-07-22T06:48:13;12.88;;;5.20;;
37657;SDS011;23500;53.268;8.308;2022-07-22T06:50:39;10.40;;;5.03;;
37657;SDS011;23500;53.268;8.308;2022-07-22T06:53:05;13.30;;;5.32;;
37657;SDS011;23500;53.268;8.308;2022-07-22T06:55:30;12.43;;;4.95;;
37657;SDS011;23500;53.268;8.308;2022-07-22T06:57:57;9.63;;;4.55;;
37657;SDS011;23500;53.268;8.308;2022-07-22T07:00:22;9.73;;;4.80;;
37657;SDS011;23500;53.268;8.308;2022-07-22T07:02:48;7.22;;;4.50;;
37657;SDS011;23500;53.268;8.308;2022-07-22T07:05:14;10.27;;;4.95;;
37657;SDS011;23500;53.268;8.308;2022-07-22T07:07:40;10.02;;;4.55;;
37657;SDS011;23500;53.268;8.308;2022-07-22T07:10:06;11.18;;;4.70;;
37657;SDS011;23500;53.268;8.308;2022-07-22T07:12:34;11.68;;;4.93;;
37657;SDS011;23500;53.268;8.308;2022-07-22T07:15:00;9.40;;;4.72;;
37657;SDS011;23500;53.268;8.308;2022-07-22T07:17:26;10.10;;;4.50;;
37657;SDS011;23500;53.268;8.308;2022-07-22T07:19:51;10.15;;;4.70;;
37657;SDS011;23500;53.268;8.308;2022-07-22T07:22:17;10.35;;;4.50;;
37657;SDS011;23500;53.268;8.308;2022-07-22T07:24:43;7.80;;;4.47;;
37657;SDS011;23500;53.268;8.308;2022-07-22T07:27:08;8.38;;;3.88;;
37657;SDS011;23500;53.268;8.308;2022-07-22T07:29:34;8.23;;;4.28;;
37657;SDS011;23500;53.268;8.308;2022-07-22T07:32:00;8.90;;;4.15;;
37657;SDS011;23500;53.268;8.308;2022-07-22T07:34:26;9.38;;;4.35;;
37657;SDS011;23500;53.268;8.308;2022-07-22T07:36:52;7.63;;;4.32;;
37657;SDS011;23500;53.268;8.308;2022-07-22T07:39:18;7.65;;;4.00;;
37657;SDS011;23500;53.268;8.308;2022-07-22T07:41:43;9.45;;;4.38;;
37657;SDS011;23500;53.268;8.308;2022-07-22T07:44:09;8.40;;;4.20;;
37657;SDS011;23500;53.268;8.308;2022-07-22T07:46:34;7.60;;;4.03;;
37657;SDS011;23500;53.268;8.308;2022-07-22T07:49:00;7.75;;;4.13;;
37657;SDS011;23500;53.268;8.308;2022-07-22T07:51:26;9.63;;;4.30;;
37657;SDS011;23500;53.268;8.308;2022-07-22T07:53:51;7.05;;;3.90;;
37657;SDS011;23500;53.268;8.308;2022-07-22T07:56:17;8.45;;;4.28;;
37657;SDS011;23500;53.268;8.308;2022-07-22T07:58:43;7.47;;;3.85;;
37657;SDS011;23500;53.268;8.308;2022-07-22T08:01:08;7.32;;;3.97;;
37657;SDS011;23500;53.268;8.308;2022-07-22T08:03:34;6.95;;;3.80;;
37657;SDS011;23500;53.268;8.308;2022-07-22T08:06:00;7.82;;;4.22;;
37657;SDS011;23500;53.268;8.308;2022-07-22T08:08:26;8.25;;;4.28;;
37657;SDS011;23500;53.268;8.308;2022-07-22T08:10:52;6.50;;;4.00;;
37657;SDS011;23500;53.268;8.308;2022-07-22T08:13:18;8.07;;;4.25;;
37657;SDS011;23500;53.268;8.308;2022-07-22T08:15:44;6.10;;;3.78;;
37657;SDS011;23500;53.268;8.308;2022-07-22T08:18:09;8.57;;;3.88;;
37657;SDS011;23500;53.268;8.308;2022-07-22T08:20:35;6.13;;;3.63;;
37657;SDS011;23500;53.268;8.308;2022-07-22T08:23:01;5.57;;;3.53;;
37657;SDS011;23500;53.268;8.308;2022-07-22T08:25:27;7.13;;;3.80;;
37657;SDS011;23500;53.268;8.308;2022-07-22T08:27:52;5.88;;;3.50;;
37657;SDS011;23500;53.268;8.308;2022-07-22T08:30:18;5.38;;;3.45;;
37657;SDS011;23500;53.268;8.308;2022-07-22T08:32:44;7.00;;;3.85;;
37657;SDS011;23500;53.268;8.308;2022-07-22T08:35:10;5.63;;;3.50;;
37657;SDS011;23500;53.268;8.308;2022-07-22T08:37:36;6.15;;;3.70;;
37657;SDS011;23500;53.268;8.308;2022-07-22T08:40:03;5.47;;;3.63;;
37657;SDS011;23500;53.268;8.308;2022-07-22T08:42:31;6.18;;;3.47;;
37657;SDS011;23500;53.268;8.308;2022-07-22T08:45:01;6.97;;;3.55;;
37657;SDS011;23500;53.268;8.308;2022-07-22T08:47:27;5.63;;;3.45;;
37657;SDS011;23500;53.268;8.308;2022-07-22T08:49:53;6.10;;;3.53;;
37657;SDS011;23500;53.268;8.308;2022-07-22T08:52:18;6.47;;;3.58;;
37657;SDS011;23500;53.268;8.308;2022-07-22T08:54:44;6.35;;;3.13;;
37657;SDS011;23500;53.268;8.308;2022-07-22T08:57:10;5.53;;;3.50;;
37657;SDS011;23500;53.268;8.308;2022-07-22T08:59:52;4.95;;;3.40;;
37657;SDS011;23500;53.268;8.308;2022-07-22T09:02:19;6.00;;;3.65;;
37657;SDS011;23500;53.268;8.308;2022-07-22T09:07:36;5.80;;;3.13;;
37657;SDS011;23500;53.268;8.308;2022-07-22T09:10:09;5.75;;;3.40;;
37657;SDS011;23500;53.268;8.308;2022-07-22T09:12:58;5.85;;;3.67;;
37657;SDS011;23500;53.268;8.308;2022-07-22T09:15:46;6.20;;;3.33;;
37657;SDS011;23500;53.268;8.308;2022-07-22T09:18:11;6.95;;;3.30;;
37657;SDS011;23500;53.268;8.308;2022-07-22T09:20:37;7.10;;;3.47;;
37657;SDS011;23500;53.268;8.308;2022-07-22T09:23:38;4.63;;;3.35;;
37657;SDS011;23500;53.268;8.308;2022-07-22T09:26:03;5.78;;;3.30;;
37657;SDS011;23500;53.268;8.308;2022-07-22T09:28:29;5.13;;;3.20;;
37657;SDS011;23500;53.268;8.308;2022-07-22T09:30:55;5.57;;;3.40;;
37657;SDS011;23500;53.268;8.308;2022-07-22T09:33:21;5.97;;;3.45;;
37657;SDS011;23500;53.268;8.308;2022-07-22T09:35:47;4.45;;;3.10;;
37657;SDS011;23500;53.268;8.308;2022-07-22T09:38:15;6.20;;;3.00;;
37657;SDS011;23500;53.268;8.308;2022-07-22T09:40:42;5.20;;;3.33;;
37657;SDS011;23500;53.268;8.308;2022-07-22T09:43:10;4.13;;;3.03;;
37657;SDS011;23500;53.268;8.308;2022-07-22T09:46:11;5.03;;;3.20;;
37657;SDS011;23500;53.268;8.308;2022-07-22T09:48:30;4.30;;;3.15;;
37657;SDS011;23500;53.268;8.308;2022-07-22T09:50:56;5.32;;;2.92;;
37657;SDS011;23500;53.268;8.308;2022-07-22T09:53:23;5.55;;;3.40;;
37657;SDS011;23500;53.268;8.308;2022-07-22T09:55:50;5.22;;;3.22;;
37657;SDS011;23500;53.268;8.308;2022-07-22T09:58:16;4.65;;;3.30;;
37657;SDS011;23500;53.268;8.308;2022-07-22T10:00:42;4.25;;;2.90;;
37657;SDS011;23500;53.268;8.308;2022-07-22T10:03:12;5.10;;;3.30;;
37657;SDS011;23500;53.268;8.308;2022-07-22T10:05:42;4.82;;;2.90;;
37657;SDS011;23500;53.268;8.308;2022-07-22T10:08:09;4.57;;;3.28;;
37657;SDS011;23500;53.268;8.308;2022-07-22T10:10:35;5.18;;;3.20;;
37657;SDS011;23500;53.268;8.308;2022-07-22T10:13:03;5.03;;;3.25;;
37657;SDS011;23500;53.268;8.308;2022-07-22T10:15:31;5.07;;;3.03;;
37657;SDS011;23500;53.268;8.308;2022-07-22T10:17:58;3.60;;;3.03;;
37657;SDS011;23500;53.268;8.308;2022-07-22T10:20:27;5.20;;;3.20;;
37657;SDS011;23500;53.268;8.308;2022-07-22T10:22:58;6.20;;;3.22;;
37657;SDS011;23500;53.268;8.308;2022-07-22T10:25:25;7.10;;;3.40;;
37657;SDS011;23500;53.268;8.308;2022-07-22T10:30:30;4.55;;;3.15;;
37657;SDS011;23500;53.268;8.308;2022-07-22T10:35:33;5.45;;;3.53;;
37657;SDS011;23500;53.268;8.308;2022-07-22T10:38:17;4.25;;;3.40;;
37657;SDS011;23500;53.268;8.308;2022-07-22T10:43:23;5.40;;;3.67;;
37657;SDS011;23500;53.268;8.308;2022-07-22T10:46:08;5.13;;;2.53;;
37657;SDS011;23500;53.268;8.308;2022-07-22T10:56:28;3.45;;;1.67;;
37657;SDS011;23500;53.268;8.308;2022-07-22T10:58:57;6.15;;;1.70;;
37657;SDS011;23500;53.268;8.308;2022-07-22T11:01:36;7.97;;;1.92;;
37657;SDS011;23500;53.268;8.308;2022-07-22T11:04:23;4.82;;;1.88;;
37657;SDS011;23500;53.268;8.308;2022-07-22T11:06:54;6.05;;;1.83;;
37657;SDS011;23500;53.268;8.308;2022-07-22T11:09:23;5.57;;;1.63;;
37657;SDS011;23500;53.268;8.308;2022-07-22T11:11:56;4.60;;;1.55;;
37657;SDS011;23500;53.268;8.308;2022-07-22T11:16:52;4.18;;;1.70;;
37657;SDS011;23500;53.268;8.308;2022-07-22T11:19:21;4.55;;;1.73;;
37657;SDS011;23500;53.268;8.308;2022-07-22T11:21:58;6.13;;;1.70;;
37657;SDS011;23500;53.268;8.308;2022-07-22T11:24:27;4.70;;;1.50;;
37657;SDS011;23500;53.268;8.308;2022-07-22T11:26:54;4.30;;;1.77;;
37657;SDS011;23500;53.268;8.308;2022-07-22T11:29:24;7.03;;;1.85;;
37657;SDS011;23500;53.268;8.308;2022-07-22T11:31:55;4.32;;;1.75;;
37657;SDS011;23500;53.268;8.308;2022-07-22T11:34:22;4.28;;;1.77;;
37657;SDS011;23500;53.268;8.308;2022-07-22T11:36:49;5.03;;;1.90;;
37657;SDS011;23500;53.268;8.308;2022-07-22T11:39:18;3.90;;;2.10;;
37657;SDS011;23500;53.268;8.308;2022-07-22T11:41:49;4.30;;;1.92;;
37657;SDS011;23500;53.268;8.308;2022-07-22T11:44:19;3.53;;;1.63;;
37657;SDS011;23500;53.268;8.308;2022-07-22T11:46:46;5.32;;;2.00;;
37657;SDS011;23500;53.268;8.308;2022-07-22T11:49:16;4.05;;;1.77;;
37657;SDS011;23500;53.268;8.308;2022-07-22T11:51:46;2.95;;;2.10;;
37657;SDS011;23500;53.268;8.308;2022-07-22T11:54:12;2.72;;;2.00;;
37657;SDS011;23500;53.268;8.308;2022-07-22T11:56:38;3.55;;;1.60;;
37657;SDS011;23500;53.268;8.308;2022-07-22T11:59:05;4.47;;;1.58;;
37657;SDS011;23500;53.268;8.308;2022-07-22T12:01:34;7.05;;;1.90;;
37657;SDS011;23500;53.268;8.308;2022-07-22T12:04:11;4.80;;;1.83;;
37657;SDS011;23500;53.268;8.308;2022-07-22T12:06:41;3.95;;;1.45;;
37657;SDS011;23500;53.268;8.308;2022-07-22T12:09:08;4.68;;;1.98;;
37657;SDS011;23500;53.268;8.308;2022-07-22T12:11:39;5.53;;;2.50;;
37657;SDS011;23500;53.268;8.308;2022-07-22T12:14:07;3.70;;;1.67;;
37657;SDS011;23500;53.268;8.308;2022-07-22T12:16:34;5.40;;;1.65;;
37657;SDS011;23500;53.268;8.308;2022-07-22T12:19:11;4.82;;;1.63;;
37657;SDS011;23500;53.268;8.308;2022-07-22T12:21:51;3.85;;;1.70;;
37657;SDS011;23500;53.268;8.308;2022-07-22T12:24:43;5.45;;;1.63;;
37657;SDS011;23500;53.268;8.308;2022-07-22T12:27:14;2.55;;;1.35;;
37657;SDS011;23500;53.268;8.308;2022-07-22T12:29:42;6.75;;;1.95;;
37657;SDS011;23500;53.268;8.308;2022-07-22T12:32:11;5.68;;;1.60;;
37657;SDS011;23500;53.268;8.308;2022-07-22T12:34:46;6.82;;;1.77;;
37657;SDS011;23500;53.268;8.308;2022-07-22T12:37:19;4.72;;;1.67;;
37657;SDS011;23500;53.268;8.308;2022-07-22T12:40:08;4.80;;;1.58;;
37657;SDS011;23500;53.268;8.308;2022-07-22T12:42:43;3.05;;;1.70;;
37657;SDS011;23500;53.268;8.308;2022-07-22T12:47:54;5.05;;;1.55;;
37657;SDS011;23500;53.268;8.308;2022-07-22T12:52:55;3.20;;;1.52;;
37657;SDS011;23500;53.268;8.308;2022-07-22T12:55:42;6.75;;;1.65;;
37657;SDS011;23500;53.268;8.308;2022-07-22T12:58:09;5.35;;;1.85;;
37657;SDS011;23500;53.268;8.308;2022-07-22T13:00:38;4.28;;;1.35;;
37657;SDS011;23500;53.268;8.308;2022-07-22T13:03:18;7.13;;;1.70;;
37657;SDS011;23500;53.268;8.308;2022-07-22T13:05:51;3.78;;;1.38;;
37657;SDS011;23500;53.268;8.308;2022-07-22T13:08:22;5.63;;;1.90;;
37657;SDS011;23500;53.268;8.308;2022-07-22T13:10:49;4.63;;;1.85;;
37657;SDS011;23500;53.268;8.308;2022-07-22T13:13:15;5.22;;;1.55;;
37657;SDS011;23500;53.268;8.308;2022-07-22T13:15:41;4.85;;;1.90;;
37657;SDS011;23500;53.268;8.308;2022-07-22T13:18:07;4.57;;;1.90;;
37657;SDS011;23500;53.268;8.308;2022-07-22T13:20:32;3.35;;;1.75;;
37657;SDS011;23500;53.268;8.308;2022-07-22T13:22:59;4.82;;;2.05;;
37657;SDS011;23500;53.268;8.308;2022-07-22T13:25:25;4.68;;;1.70;;
37657;SDS011;23500;53.268;8.308;2022-07-22T13:27:52;3.85;;;1.75;;
37657;SDS011;23500;53.268;8.308;2022-07-22T13:30:18;3.95;;;2.10;;
37657;SDS011;23500;53.268;8.308;2022-07-22T13:32:43;5.03;;;2.05;;
37657;SDS011;23500;53.268;8.308;2022-07-22T13:35:09;4.28;;;1.95;;
37657;SDS011;23500;53.268;8.308;2022-07-22T13:37:35;3.40;;;2.13;;
37657;SDS011;23500;53.268;8.308;2022-07-22T13:40:01;3.22;;;2.10;;
37657;SDS011;23500;53.268;8.308;2022-07-22T13:42:28;5.70;;;2.33;;
37657;SDS011;23500;53.268;8.308;2022-07-22T13:44:54;3.40;;;2.40;;
37657;SDS011;23500;53.268;8.308;2022-07-22T13:47:20;5.10;;;2.88;;
37657;SDS011;23500;53.268;8.308;2022-07-22T13:49:46;3.78;;;2.42;;
37657;SDS011;23500;53.268;8.308;2022-07-22T13:52:12;4.82;;;3.30;;
37657;SDS011;23500;53.268;8.308;2022-07-22T13:54:38;5.85;;;2.60;;
37657;SDS011;23500;53.268;8.308;2022-07-22T13:57:04;5.00;;;2.88;;
37657;SDS011;23500;53.268;8.308;2022-07-22T13:59:30;4.15;;;2.72;;
37657;SDS011;23500;53.268;8.308;2022-07-22T14:01:56;4.75;;;2.92;;
37657;SDS011;23500;53.268;8.308;2022-07-22T14:04:22;4.75;;;2.90;;
37657;SDS011;23500;53.268;8.308;2022-07-22T14:06:49;3.22;;;2.80;;
37657;SDS011;23500;53.268;8.308;2022-07-22T14:09:14;4.45;;;2.90;;
37657;SDS011;23500;53.268;8.308;2022-07-22T14:11:40;3.70;;;2.30;;
37657;SDS011;23500;53.268;8.308;2022-07-22T14:14:05;3.33;;;1.77;;
37657;SDS011;23500;53.268;8.308;2022-07-22T14:16:32;4.75;;;2.47;;
37657;SDS011;23500;53.268;8.308;2022-07-22T14:18:58;6.38;;;2.85;;
37657;SDS011;23500;53.268;8.308;2022-07-22T14:21:32;4.43;;;2.40;;
37657;SDS011;23500;53.268;8.308;2022-07-22T14:23:58;3.65;;;2.03;;
37657;SDS011;23500;53.268;8.308;2022-07-22T14:26:25;4.32;;;2.35;;
37657;SDS011;23500;53.268;8.308;2022-07-22T14:28:51;5.03;;;2.28;;
37657;SDS011;23500;53.268;8.308;2022-07-22T14:31:17;4.65;;;2.45;;
37657;SDS011;23500;53.268;8.308;2022-07-22T14:33:42;4.97;;;2.15;;
37657;SDS011;23500;53.268;8.308;2022-07-22T14:36:08;4.60;;;2.47;;
37657;SDS011;23500;53.268;8.308;2022-07-22T14:38:34;5.45;;;2.28;;
37657;SDS011;23500;53.268;8.308;2022-07-22T14:41:00;5.43;;;2.10;;
37657;SDS011;23500;53.268;8.308;2022-07-22T14:43:26;4.80;;;1.70;;
37657;SDS011;23500;53.268;8.308;2022-07-22T14:45:52;3.67;;;1.70;;
37657;SDS011;23500;53.268;8.308;2022-07-22T14:48:18;5.15;;;1.63;;
37657;SDS011;23500;53.268;8.308;2022-07-22T14:50:43;3.70;;;1.67;;
37657;SDS011;23500;53.268;8.308;2022-07-22T14:53:09;4.88;;;1.60;;
37657;SDS011;23500;53.268;8.308;2022-07-22T14:55:35;3.58;;;1.40;;
37657;SDS011;23500;53.268;8.308;2022-07-22T14:58:01;3.72;;;1.60;;
37657;SDS011;23500;53.268;8.308;2022-07-22T15:00:26;3.45;;;1.45;;
37657;SDS011;23500;53.268;8.308;2022-07-22T15:02:52;3.88;;;1.45;;
37657;SDS011;23500;53.268;8.308;2022-07-22T15:05:17;2.60;;;1.58;;
37657;SDS011;23500;53.268;8.308;2022-07-22T15:07:43;7.40;;;1.80;;
37657;SDS011;23500;53.268;8.308;2022-07-22T15:10:09;4.25;;;1.90;;
37657;SDS011;23500;53.268;8.308;2022-07-22T15:12:35;3.08;;;1.67;;